sensor_id;sensor_type;location;lat;lon;timestamp;P1;durP1;ratioP1;P2;durP2;ratioP2
35239;SDS011;21376;50.954;4.716;2023-03-11T00:01:08;18.35;;;4.93;;
35239;SDS011;21376;50.954;4.716;2023-03-11T00:03:40;16.80;;;4.60;;
35239;SDS011;21376;50.954;4.716;2023-03-11T00:06:07;12.75;;;3.90;;
35239;SDS011;21376;50.954;4.716;2023-03-11T00:08:34;15.38;;;4.53;;
35239;SDS011;21376;50.954;4.716;2023-03-11T00:11:06;11.00;;;3.92;;
35239;SDS011;21376;50.954;4.716;2023-03-11T00:16:12;16.05;;;4.15;;
35239;SDS011;21376;50.954;4.716;2023-03-11T00:18:38;18.42;;;5.53;;
35239;SDS011;21376;50.954;4.716;2023-03-11T00:21:20;18.10;;;4.88;;
35239;SDS011;21376;50.954;4.716;2023-03-11T00:23:46;13.82;;;5.07;;
35239;SDS011;21376;50.954;4.716;2023-03-11T00:26:15;11.55;;;3.83;;
35239;SDS011;21376;50.954;4.716;2023-03-11T00:33:44;16.35;;;4.90;;
35239;SDS011;21376;50.954;4.716;2023-03-11T00:39:03;17.50;;;5.43;;
35239;SDS011;21376;50.954;4.716;2023-03-11T00:41:35;23.75;;;7.53;;
35239;SDS011;21376;50.954;4.716;2023-03-11T00:44:02;24.40;;;9.07;;
35239;SDS011;21376;50.954;4.716;2023-03-11T00:48:59;27.95;;;10.82;;
35239;SDS011;21376;50.954;4.716;2023-03-11T00:51:30;29.83;;;10.10;;
35239;SDS011;21376;50.954;4.716;2023-03-11T00:56:28;27.50;;;11.70;;
35239;SDS011;21376;50.954;4.716;2023-03-11T01:01:28;35.75;;;12.27;;
35239;SDS011;21376;50.954;4.716;2023-03-11T01:03:57;25.20;;;11.32;;
35239;SDS011;21376;50.954;4.716;2023-03-11T01:06:26;22.73;;;10.65;;
35239;SDS011;21376;50.954;4.716;2023-03-11T01:08:52;27.75;;;10.10;;
35239;SDS011;21376;50.954;4.716;2023-03-11T01:11:18;31.98;;;9.90;;
35239;SDS011;21376;50.954;4.716;2023-03-11T01:13:55;15.85;;;8.40;;
35239;SDS011;21376;50.954;4.716;2023-03-11T01:16:24;24.20;;;9.05;;
35239;SDS011;21376;50.954;4.716;2023-03-11T01:18:52;23.77;;;8.57;;
35239;SDS011;21376;50.954;4.716;2023-03-11T01:23:47;17.70;;;8.68;;
35239;SDS011;21376;50.954;4.716;2023-03-11T01:26:13;21.45;;;7.72;;
35239;SDS011;21376;50.954;4.716;2023-03-11T01:28:42;17.27;;;7.85;;
35239;SDS011;21376;50.954;4.716;2023-03-11T01:33:41;18.40;;;8.38;;
35239;SDS011;21376;50.954;4.716;2023-03-11T01:36:07;16.15;;;8.57;;
35239;SDS011;21376;50.954;4.716;2023-03-11T01:38:48;17.25;;;7.57;;
35239;SDS011;21376;50.954;4.716;2023-03-11T01:41:29;22.15;;;9.10;;
35239;SDS011;21376;50.954;4.716;2023-03-11T01:46:25;22.15;;;9.07;;
35239;SDS011;21376;50.954;4.716;2023-03-11T01:48:56;25.00;;;7.93;;
35239;SDS011;21376;50.954;4.716;2023-03-11T01:51:27;27.27;;;8.55;;
35239;SDS011;21376;50.954;4.716;2023-03-11T01:54:02;22.70;;;8.13;;
35239;SDS011;21376;50.954;4.716;2023-03-11T01:56:34;19.60;;;7.45;;
35239;SDS011;21376;50.954;4.716;2023-03-11T01:59:00;16.67;;;7.45;;
35239;SDS011;21376;50.954;4.716;2023-03-11T02:01:26;21.25;;;7.55;;
35239;SDS011;21376;50.954;4.716;2023-03-11T02:03:55;17.40;;;8.02;;
35239;SDS011;21376;50.954;4.716;2023-03-11T02:06:22;15.15;;;6.53;;
35239;SDS011;21376;50.954;4.716;2023-03-11T02:08:49;17.48;;;6.13;;
35239;SDS011;21376;50.954;4.716;2023-03-11T02:11:17;9.63;;;5.10;;
35239;SDS011;21376;50.954;4.716;2023-03-11T02:13:50;15.75;;;6.18;;
35239;SDS011;21376;50.954;4.716;2023-03-11T02:16:18;21.95;;;6.07;;
35239;SDS011;21376;50.954;4.716;2023-03-11T02:18:47;12.77;;;5.25;;
35239;SDS011;21376;50.954;4.716;2023-03-11T02:21:31;11.45;;;4.07;;
35239;SDS011;21376;50.954;4.716;2023-03-11T02:24:04;16.05;;;4.90;;
35239;SDS011;21376;50.954;4.716;2023-03-11T02:26:51;14.32;;;4.57;;
35239;SDS011;21376;50.954;4.716;2023-03-11T02:29:28;11.63;;;3.90;;
35239;SDS011;21376;50.954;4.716;2023-03-11T02:31:58;14.25;;;4.03;;
35239;SDS011;21376;50.954;4.716;2023-03-11T02:34:29;16.63;;;4.47;;
35239;SDS011;21376;50.954;4.716;2023-03-11T02:36:57;12.30;;;3.92;;
35239;SDS011;21376;50.954;4.716;2023-03-11T02:39:34;10.27;;;4.43;;
35239;SDS011;21376;50.954;4.716;2023-03-11T02:49:47;12.85;;;4.03;;
35239;SDS011;21376;50.954;4.716;2023-03-11T02:52:16;13.13;;;3.83;;
35239;SDS011;21376;50.954;4.716;2023-03-11T02:54:43;11.82;;;3.90;;
35239;SDS011;21376;50.954;4.716;2023-03-11T02:57:12;11.40;;;4.22;;
35239;SDS011;21376;50.954;4.716;2023-03-11T02:59:41;13.73;;;4.75;;
35239;SDS011;21376;50.954;4.716;2023-03-11T03:04:38;9.98;;;4.10;;
35239;SDS011;21376;50.954;4.716;2023-03-11T03:07:06;12.65;;;4.10;;
35239;SDS011;21376;50.954;4.716;2023-03-11T03:09:34;13.25;;;3.85;;
35239;SDS011;21376;50.954;4.716;2023-03-11T03:12:01;19.85;;;4.25;;
35239;SDS011;21376;50.954;4.716;2023-03-11T03:14:29;8.55;;;3.08;;
35239;SDS011;21376;50.954;4.716;2023-03-11T03:19:26;11.57;;;4.45;;
35239;SDS011;21376;50.954;4.716;2023-03-11T03:21:52;15.38;;;4.40;;
35239;SDS011;21376;50.954;4.716;2023-03-11T03:24:22;12.77;;;4.20;;
35239;SDS011;21376;50.954;4.716;2023-03-11T03:29:20;15.40;;;4.25;;
35239;SDS011;21376;50.954;4.716;2023-03-11T03:31:47;10.23;;;4.55;;
35239;SDS011;21376;50.954;4.716;2023-03-11T03:34:16;12.45;;;4.82;;
35239;SDS011;21376;50.954;4.716;2023-03-11T03:36:51;8.65;;;4.20;;
35239;SDS011;21376;50.954;4.716;2023-03-11T03:39:18;12.55;;;4.40;;
35239;SDS011;21376;50.954;4.716;2023-03-11T03:41:47;12.20;;;4.25;;
35239;SDS011;21376;50.954;4.716;2023-03-11T03:44:16;14.00;;;4.70;;
35239;SDS011;21376;50.954;4.716;2023-03-11T03:46:44;8.30;;;4.25;;
35239;SDS011;21376;50.954;4.716;2023-03-11T03:49:10;17.33;;;4.80;;
35239;SDS011;21376;50.954;4.716;2023-03-11T03:51:36;13.82;;;4.88;;
35239;SDS011;21376;50.954;4.716;2023-03-11T03:56:33;17.50;;;4.78;;
35239;SDS011;21376;50.954;4.716;2023-03-11T03:59:02;9.50;;;4.07;;
35239;SDS011;21376;50.954;4.716;2023-03-11T04:01:34;12.10;;;4.72;;
35239;SDS011;21376;50.954;4.716;2023-03-11T04:04:05;9.10;;;4.53;;
35239;SDS011;21376;50.954;4.716;2023-03-11T04:06:33;17.88;;;4.95;;
35239;SDS011;21376;50.954;4.716;2023-03-11T04:11:31;12.50;;;5.13;;
35239;SDS011;21376;50.954;4.716;2023-03-11T04:14:10;14.93;;;6.03;;
35239;SDS011;21376;50.954;4.716;2023-03-11T04:16:39;17.50;;;6.30;;
35239;SDS011;21376;50.954;4.716;2023-03-11T04:19:08;17.45;;;6.90;;
35239;SDS011;21376;50.954;4.716;2023-03-11T04:21:37;16.55;;;6.22;;
35239;SDS011;21376;50.954;4.716;2023-03-11T04:24:08;13.52;;;5.53;;
35239;SDS011;21376;50.954;4.716;2023-03-11T04:26:35;22.05;;;6.20;;
35239;SDS011;21376;50.954;4.716;2023-03-11T04:29:01;15.45;;;6.60;;
35239;SDS011;21376;50.954;4.716;2023-03-11T04:36:31;18.65;;;6.47;;
35239;SDS011;21376;50.954;4.716;2023-03-11T04:39:07;20.73;;;6.63;;
35239;SDS011;21376;50.954;4.716;2023-03-11T04:41:35;16.23;;;6.60;;
35239;SDS011;21376;50.954;4.716;2023-03-11T04:44:02;16.10;;;6.95;;
35239;SDS011;21376;50.954;4.716;2023-03-11T04:46:28;21.73;;;7.50;;
35239;SDS011;21376;50.954;4.716;2023-03-11T04:48:53;27.35;;;7.95;;
35239;SDS011;21376;50.954;4.716;2023-03-11T04:51:22;21.52;;;8.30;;
35239;SDS011;21376;50.954;4.716;2023-03-11T04:53:54;23.73;;;7.97;;
35239;SDS011;21376;50.954;4.716;2023-03-11T04:58:52;20.58;;;7.55;;
35239;SDS011;21376;50.954;4.716;2023-03-11T05:01:21;18.90;;;9.25;;
35239;SDS011;21376;50.954;4.716;2023-03-11T05:03:47;21.48;;;8.25;;
35239;SDS011;21376;50.954;4.716;2023-03-11T05:06:17;21.08;;;8.02;;
35239;SDS011;21376;50.954;4.716;2023-03-11T05:08:44;22.85;;;9.05;;
35239;SDS011;21376;50.954;4.716;2023-03-11T05:11:12;25.40;;;8.73;;
35239;SDS011;21376;50.954;4.716;2023-03-11T05:13:38;16.40;;;7.63;;
35239;SDS011;21376;50.954;4.716;2023-03-11T05:18:39;22.15;;;8.52;;
35239;SDS011;21376;50.954;4.716;2023-03-11T05:21:05;18.98;;;8.52;;
35239;SDS011;21376;50.954;4.716;2023-03-11T05:23:32;22.25;;;8.82;;
35239;SDS011;21376;50.954;4.716;2023-03-11T05:25:58;22.92;;;8.02;;
35239;SDS011;21376;50.954;4.716;2023-03-11T05:28:25;22.08;;;9.25;;
35239;SDS011;21376;50.954;4.716;2023-03-11T05:30:51;23.80;;;8.45;;
35239;SDS011;21376;50.954;4.716;2023-03-11T05:33:21;25.25;;;9.38;;
35239;SDS011;21376;50.954;4.716;2023-03-11T05:35:54;20.77;;;8.82;;
35239;SDS011;21376;50.954;4.716;2023-03-11T05:38:20;23.77;;;8.57;;
35239;SDS011;21376;50.954;4.716;2023-03-11T05:40:48;21.98;;;9.27;;
35239;SDS011;21376;50.954;4.716;2023-03-11T05:43:19;19.20;;;8.20;;
35239;SDS011;21376;50.954;4.716;2023-03-11T05:48:53;19.33;;;7.82;;
35239;SDS011;21376;50.954;4.716;2023-03-11T05:51:19;18.65;;;8.07;;
35239;SDS011;21376;50.954;4.716;2023-03-11T05:53:48;20.38;;;8.88;;
35239;SDS011;21376;50.954;4.716;2023-03-11T05:56:18;25.75;;;10.35;;
35239;SDS011;21376;50.954;4.716;2023-03-11T05:58:48;29.85;;;10.45;;
35239;SDS011;21376;50.954;4.716;2023-03-11T06:01:25;25.67;;;9.43;;
35239;SDS011;21376;50.954;4.716;2023-03-11T06:04:09;31.25;;;10.05;;
35239;SDS011;21376;50.954;4.716;2023-03-11T06:09:12;31.05;;;9.93;;
35239;SDS011;21376;50.954;4.716;2023-03-11T06:11:55;29.02;;;10.75;;
35239;SDS011;21376;50.954;4.716;2023-03-11T06:14:24;21.23;;;10.13;;
35239;SDS011;21376;50.954;4.716;2023-03-11T06:19:24;23.15;;;10.38;;
35239;SDS011;21376;50.954;4.716;2023-03-11T06:24:22;23.80;;;11.07;;
35239;SDS011;21376;50.954;4.716;2023-03-11T06:29:31;29.30;;;11.13;;
35239;SDS011;21376;50.954;4.716;2023-03-11T06:32:03;22.77;;;10.60;;
35239;SDS011;21376;50.954;4.716;2023-03-11T06:34:32;26.45;;;11.27;;
35239;SDS011;21376;50.954;4.716;2023-03-11T06:37:01;24.85;;;12.63;;
35239;SDS011;21376;50.954;4.716;2023-03-11T06:39:29;21.40;;;10.48;;
35239;SDS011;21376;50.954;4.716;2023-03-11T06:41:58;31.67;;;10.07;;
35239;SDS011;21376;50.954;4.716;2023-03-11T06:46:56;25.48;;;11.02;;
35239;SDS011;21376;50.954;4.716;2023-03-11T06:49:28;25.35;;;10.85;;
35239;SDS011;21376;50.954;4.716;2023-03-11T06:51:55;50.80;;;17.13;;
35239;SDS011;21376;50.954;4.716;2023-03-11T06:54:21;57.17;;;19.02;;
35239;SDS011;21376;50.954;4.716;2023-03-11T06:56:50;51.00;;;17.95;;
35239;SDS011;21376;50.954;4.716;2023-03-11T06:59:32;61.38;;;18.13;;
35239;SDS011;21376;50.954;4.716;2023-03-11T07:04:57;35.65;;;14.85;;
35239;SDS011;21376;50.954;4.716;2023-03-11T07:07:29;36.63;;;15.25;;
35239;SDS011;21376;50.954;4.716;2023-03-11T07:10:01;31.20;;;15.93;;
35239;SDS011;21376;50.954;4.716;2023-03-11T07:12:30;35.10;;;15.88;;
35239;SDS011;21376;50.954;4.716;2023-03-11T07:17:23;36.03;;;14.90;;
35239;SDS011;21376;50.954;4.716;2023-03-11T07:19:52;33.05;;;14.77;;
35239;SDS011;21376;50.954;4.716;2023-03-11T07:22:18;29.08;;;13.95;;
35239;SDS011;21376;50.954;4.716;2023-03-11T07:24:59;23.85;;;10.90;;
35239;SDS011;21376;50.954;4.716;2023-03-11T07:29:56;14.38;;;6.40;;
35239;SDS011;21376;50.954;4.716;2023-03-11T07:35:33;15.27;;;5.68;;
35239;SDS011;21376;50.954;4.716;2023-03-11T07:38:02;10.55;;;5.55;;
35239;SDS011;21376;50.954;4.716;2023-03-11T07:40:31;13.25;;;5.13;;
35239;SDS011;21376;50.954;4.716;2023-03-11T07:42:57;11.07;;;4.65;;
35239;SDS011;21376;50.954;4.716;2023-03-11T07:56:20;10.82;;;5.70;;
35239;SDS011;21376;50.954;4.716;2023-03-11T07:59:01;11.20;;;4.85;;
35239;SDS011;21376;50.954;4.716;2023-03-11T08:01:34;8.50;;;4.38;;
35239;SDS011;21376;50.954;4.716;2023-03-11T08:04:03;8.07;;;4.88;;
35239;SDS011;21376;50.954;4.716;2023-03-11T08:06:32;6.75;;;4.15;;
35239;SDS011;21376;50.954;4.716;2023-03-11T08:09:00;7.15;;;4.05;;
35239;SDS011;21376;50.954;4.716;2023-03-11T08:11:35;9.32;;;4.60;;
35239;SDS011;21376;50.954;4.716;2023-03-11T08:14:08;9.90;;;4.22;;
35239;SDS011;21376;50.954;4.716;2023-03-11T08:16:38;11.80;;;4.40;;
35239;SDS011;21376;50.954;4.716;2023-03-11T08:19:11;8.18;;;4.00;;
35239;SDS011;21376;50.954;4.716;2023-03-11T08:21:41;11.23;;;4.18;;
35239;SDS011;21376;50.954;4.716;2023-03-11T08:24:08;9.88;;;4.30;;
35239;SDS011;21376;50.954;4.716;2023-03-11T08:26:38;8.13;;;3.97;;
35239;SDS011;21376;50.954;4.716;2023-03-11T08:29:07;11.05;;;3.58;;
35239;SDS011;21376;50.954;4.716;2023-03-11T08:31:36;7.40;;;3.63;;
35239;SDS011;21376;50.954;4.716;2023-03-11T08:34:14;9.07;;;3.45;;
35239;SDS011;21376;50.954;4.716;2023-03-11T08:36:46;8.95;;;3.40;;
35239;SDS011;21376;50.954;4.716;2023-03-11T08:39:15;8.18;;;3.90;;
35239;SDS011;21376;50.954;4.716;2023-03-11T08:41:43;9.90;;;3.25;;
35239;SDS011;21376;50.954;4.716;2023-03-11T08:44:09;7.93;;;3.67;;
35239;SDS011;21376;50.954;4.716;2023-03-11T08:46:36;9.45;;;3.42;;
35239;SDS011;21376;50.954;4.716;2023-03-11T08:49:03;5.85;;;3.17;;
35239;SDS011;21376;50.954;4.716;2023-03-11T08:51:31;10.02;;;3.50;;
35239;SDS011;21376;50.954;4.716;2023-03-11T08:56:46;8.07;;;3.47;;
35239;SDS011;21376;50.954;4.716;2023-03-11T08:59:15;7.68;;;3.60;;
35239;SDS011;21376;50.954;4.716;2023-03-11T09:04:13;11.07;;;3.60;;
35239;SDS011;21376;50.954;4.716;2023-03-11T09:06:45;6.40;;;2.83;;
35239;SDS011;21376;50.954;4.716;2023-03-11T09:12:02;11.88;;;3.08;;
35239;SDS011;21376;50.954;4.716;2023-03-11T09:17:04;8.77;;;3.47;;
35239;SDS011;21376;50.954;4.716;2023-03-11T09:19:33;7.93;;;2.90;;
35239;SDS011;21376;50.954;4.716;2023-03-11T09:24:45;7.38;;;2.30;;
35239;SDS011;21376;50.954;4.716;2023-03-11T09:27:16;6.97;;;2.88;;
35239;SDS011;21376;50.954;4.716;2023-03-11T09:29:45;5.75;;;2.75;;
35239;SDS011;21376;50.954;4.716;2023-03-11T09:32:17;4.35;;;2.17;;
35239;SDS011;21376;50.954;4.716;2023-03-11T09:37:12;5.13;;;1.50;;
35239;SDS011;21376;50.954;4.716;2023-03-11T09:39:42;5.78;;;1.52;;
35239;SDS011;21376;50.954;4.716;2023-03-11T09:42:23;7.57;;;1.85;;
35239;SDS011;21376;50.954;4.716;2023-03-11T10:02:01;6.85;;;1.80;;
35239;SDS011;21376;50.954;4.716;2023-03-11T10:04:38;5.95;;;1.85;;
35239;SDS011;21376;50.954;4.716;2023-03-11T10:07:12;8.70;;;2.03;;
35239;SDS011;21376;50.954;4.716;2023-03-11T10:10:02;11.05;;;1.92;;
35239;SDS011;21376;50.954;4.716;2023-03-11T10:15:23;6.53;;;2.75;;
35239;SDS011;21376;50.954;4.716;2023-03-11T10:35:57;4.07;;;1.15;;
35239;SDS011;21376;50.954;4.716;2023-03-11T10:38:29;6.43;;;1.65;;
35239;SDS011;21376;50.954;4.716;2023-03-11T10:41:20;3.50;;;1.60;;
35239;SDS011;21376;50.954;4.716;2023-03-11T10:49:36;6.38;;;1.83;;
35239;SDS011;21376;50.954;4.716;2023-03-11T10:52:11;6.13;;;1.55;;
35239;SDS011;21376;50.954;4.716;2023-03-11T10:54:45;6.15;;;1.40;;
35239;SDS011;21376;50.954;4.716;2023-03-11T11:11:02;7.57;;;1.58;;
35239;SDS011;21376;50.954;4.716;2023-03-11T11:13:32;6.32;;;1.38;;
35239;SDS011;21376;50.954;4.716;2023-03-11T11:24:32;6.50;;;1.38;;
35239;SDS011;21376;50.954;4.716;2023-03-11T11:29:35;6.22;;;1.10;;
35239;SDS011;21376;50.954;4.716;2023-03-11T11:37:40;5.57;;;1.40;;
35239;SDS011;21376;50.954;4.716;2023-03-11T11:42:53;5.07;;;1.70;;
35239;SDS011;21376;50.954;4.716;2023-03-11T11:48:38;4.78;;;1.10;;
35239;SDS011;21376;50.954;4.716;2023-03-11T11:56:32;8.23;;;1.65;;
35239;SDS011;21376;50.954;4.716;2023-03-11T11:58:58;6.95;;;2.38;;
35239;SDS011;21376;50.954;4.716;2023-03-11T12:17:53;8.45;;;1.55;;
35239;SDS011;21376;50.954;4.716;2023-03-11T12:31:20;6.22;;;1.60;;
35239;SDS011;21376;50.954;4.716;2023-03-11T12:34:01;5.43;;;1.67;;
35239;SDS011;21376;50.954;4.716;2023-03-11T12:36:32;3.10;;;1.65;;
35239;SDS011;21376;50.954;4.716;2023-03-11T12:39:04;5.40;;;1.65;;
35239;SDS011;21376;50.954;4.716;2023-03-11T12:49:41;4.03;;;1.50;;
35239;SDS011;21376;50.954;4.716;2023-03-11T12:52:19;4.10;;;1.33;;
35239;SDS011;21376;50.954;4.716;2023-03-11T12:57:31;4.13;;;1.40;;
35239;SDS011;21376;50.954;4.716;2023-03-11T13:08:50;3.15;;;1.20;;
35239;SDS011;21376;50.954;4.716;2023-03-11T13:16:48;4.80;;;1.85;;
35239;SDS011;21376;50.954;4.716;2023-03-11T13:22:38;7.45;;;1.27;;
35239;SDS011;21376;50.954;4.716;2023-03-11T13:25:30;4.05;;;1.80;;
35239;SDS011;21376;50.954;4.716;2023-03-11T13:33:56;6.60;;;1.60;;
35239;SDS011;21376;50.954;4.716;2023-03-11T13:42:44;6.63;;;1.40;;
35239;SDS011;21376;50.954;4.716;2023-03-11T13:47:56;5.80;;;1.70;;
35239;SDS011;21376;50.954;4.716;2023-03-11T13:50:38;4.95;;;1.23;;
35239;SDS011;21376;50.954;4.716;2023-03-11T13:53:23;5.80;;;1.50;;
35239;SDS011;21376;50.954;4.716;2023-03-11T13:58:45;9.07;;;2.17;;
35239;SDS011;21376;50.954;4.716;2023-03-11T14:03:47;13.52;;;1.88;;
35239;SDS011;21376;50.954;4.716;2023-03-11T14:12:15;7.45;;;2.10;;
35239;SDS011;21376;50.954;4.716;2023-03-11T14:14:44;4.85;;;1.38;;
35239;SDS011;21376;50.954;4.716;2023-03-11T14:17:18;7.53;;;1.58;;
35239;SDS011;21376;50.954;4.716;2023-03-11T14:22:52;4.93;;;1.40;;
35239;SDS011;21376;50.954;4.716;2023-03-11T14:25:25;4.57;;;1.60;;
35239;SDS011;21376;50.954;4.716;2023-03-11T14:28:03;7.43;;;1.70;;
35239;SDS011;21376;50.954;4.716;2023-03-11T14:33:03;4.68;;;1.48;;
35239;SDS011;21376;50.954;4.716;2023-03-11T14:35:31;6.20;;;1.40;;
35239;SDS011;21376;50.954;4.716;2023-03-11T14:38:02;5.20;;;1.40;;
35239;SDS011;21376;50.954;4.716;2023-03-11T14:43:31;3.70;;;1.15;;
35239;SDS011;21376;50.954;4.716;2023-03-11T14:46:04;6.22;;;1.42;;
35239;SDS011;21376;50.954;4.716;2023-03-11T14:48:38;4.78;;;1.08;;
35239;SDS011;21376;50.954;4.716;2023-03-11T14:51:18;8.18;;;1.83;;
35239;SDS011;21376;50.954;4.716;2023-03-11T14:59:12;8.80;;;2.20;;
35239;SDS011;21376;50.954;4.716;2023-03-11T15:01:50;9.23;;;2.00;;
35239;SDS011;21376;50.954;4.716;2023-03-11T15:04:32;7.20;;;1.90;;
35239;SDS011;21376;50.954;4.716;2023-03-11T15:07:02;3.88;;;1.30;;
35239;SDS011;21376;50.954;4.716;2023-03-11T15:09:32;6.57;;;1.63;;
35239;SDS011;21376;50.954;4.716;2023-03-11T15:12:03;9.40;;;1.90;;
35239;SDS011;21376;50.954;4.716;2023-03-11T15:14:48;8.40;;;2.10;;
35239;SDS011;21376;50.954;4.716;2023-03-11T15:19:53;7.35;;;1.75;;
35239;SDS011;21376;50.954;4.716;2023-03-11T15:25:15;3.25;;;1.70;;
35239;SDS011;21376;50.954;4.716;2023-03-11T15:27:45;6.68;;;1.73;;
35239;SDS011;21376;50.954;4.716;2023-03-11T15:30:32;5.53;;;2.40;;
35239;SDS011;21376;50.954;4.716;2023-03-11T15:33:00;7.95;;;1.70;;
35239;SDS011;21376;50.954;4.716;2023-03-11T15:35:43;8.93;;;1.60;;
35239;SDS011;21376;50.954;4.716;2023-03-11T15:38:24;4.38;;;1.50;;
35239;SDS011;21376;50.954;4.716;2023-03-11T15:40:53;7.53;;;1.90;;
35239;SDS011;21376;50.954;4.716;2023-03-11T15:51:38;14.13;;;2.08;;
35239;SDS011;21376;50.954;4.716;2023-03-11T15:54:07;8.05;;;2.13;;
35239;SDS011;21376;50.954;4.716;2023-03-11T15:56:35;8.93;;;1.85;;
35239;SDS011;21376;50.954;4.716;2023-03-11T15:59:02;5.75;;;1.80;;
35239;SDS011;21376;50.954;4.716;2023-03-11T16:01:28;16.67;;;2.10;;
35239;SDS011;21376;50.954;4.716;2023-03-11T16:03:57;7.13;;;1.85;;
35239;SDS011;21376;50.954;4.716;2023-03-11T16:06:23;7.78;;;1.95;;
35239;SDS011;21376;50.954;4.716;2023-03-11T16:08:49;5.57;;;1.92;;
35239;SDS011;21376;50.954;4.716;2023-03-11T16:11:15;5.40;;;1.63;;
35239;SDS011;21376;50.954;4.716;2023-03-11T16:13:44;5.75;;;2.17;;
35239;SDS011;21376;50.954;4.716;2023-03-11T16:16:15;4.45;;;2.40;;
35239;SDS011;21376;50.954;4.716;2023-03-11T16:18:43;7.40;;;2.30;;
35239;SDS011;21376;50.954;4.716;2023-03-11T16:21:16;8.90;;;2.85;;
35239;SDS011;21376;50.954;4.716;2023-03-11T16:23:45;6.60;;;2.30;;
35239;SDS011;21376;50.954;4.716;2023-03-11T16:26:18;8.13;;;2.50;;
35239;SDS011;21376;50.954;4.716;2023-03-11T16:28:47;6.43;;;2.45;;
35239;SDS011;21376;50.954;4.716;2023-03-11T16:31:13;8.23;;;2.22;;
35239;SDS011;21376;50.954;4.716;2023-03-11T16:33:42;10.05;;;2.65;;
35239;SDS011;21376;50.954;4.716;2023-03-11T16:36:09;17.25;;;3.10;;
35239;SDS011;21376;50.954;4.716;2023-03-11T16:38:40;7.18;;;2.45;;
35239;SDS011;21376;50.954;4.716;2023-03-11T16:41:14;14.02;;;3.03;;
35239;SDS011;21376;50.954;4.716;2023-03-11T16:43:41;9.65;;;2.80;;
35239;SDS011;21376;50.954;4.716;2023-03-11T16:46:08;8.68;;;2.88;;
35239;SDS011;21376;50.954;4.716;2023-03-11T16:51:11;10.05;;;3.70;;
35239;SDS011;21376;50.954;4.716;2023-03-11T16:53:40;6.97;;;4.50;;
35239;SDS011;21376;50.954;4.716;2023-03-11T16:59:17;8.88;;;2.30;;
35239;SDS011;21376;50.954;4.716;2023-03-11T17:01:44;12.68;;;2.58;;
35239;SDS011;21376;50.954;4.716;2023-03-11T17:04:25;10.13;;;2.25;;
35239;SDS011;21376;50.954;4.716;2023-03-11T17:06:59;8.05;;;2.33;;
35239;SDS011;21376;50.954;4.716;2023-03-11T17:12:00;10.38;;;2.85;;
35239;SDS011;21376;50.954;4.716;2023-03-11T17:14:30;13.18;;;2.65;;
35239;SDS011;21376;50.954;4.716;2023-03-11T17:17:09;10.98;;;2.50;;
35239;SDS011;21376;50.954;4.716;2023-03-11T17:22:04;10.20;;;2.38;;
35239;SDS011;21376;50.954;4.716;2023-03-11T17:24:30;6.50;;;1.90;;
35239;SDS011;21376;50.954;4.716;2023-03-11T17:26:58;7.60;;;1.75;;
35239;SDS011;21376;50.954;4.716;2023-03-11T17:29:27;7.28;;;2.15;;
35239;SDS011;21376;50.954;4.716;2023-03-11T17:31:56;9.85;;;2.60;;
35239;SDS011;21376;50.954;4.716;2023-03-11T17:34:33;10.43;;;2.47;;
35239;SDS011;21376;50.954;4.716;2023-03-11T17:37:05;5.03;;;1.75;;
35239;SDS011;21376;50.954;4.716;2023-03-11T17:39:35;11.70;;;2.50;;
35239;SDS011;21376;50.954;4.716;2023-03-11T17:42:04;8.65;;;2.60;;
35239;SDS011;21376;50.954;4.716;2023-03-11T17:44:33;8.48;;;2.55;;
35239;SDS011;21376;50.954;4.716;2023-03-11T17:47:02;7.97;;;2.60;;
35239;SDS011;21376;50.954;4.716;2023-03-11T17:49:29;6.47;;;2.25;;
35239;SDS011;21376;50.954;4.716;2023-03-11T17:51:58;8.40;;;2.45;;
35239;SDS011;21376;50.954;4.716;2023-03-11T17:54:24;12.35;;;2.67;;
35239;SDS011;21376;50.954;4.716;2023-03-11T17:59:22;9.25;;;2.70;;
35239;SDS011;21376;50.954;4.716;2023-03-11T18:04:17;12.00;;;3.35;;
35239;SDS011;21376;50.954;4.716;2023-03-11T18:09:14;7.35;;;3.28;;
35239;SDS011;21376;50.954;4.716;2023-03-11T18:14:13;11.60;;;2.92;;
35239;SDS011;21376;50.954;4.716;2023-03-11T18:16:44;9.05;;;4.05;;
35239;SDS011;21376;50.954;4.716;2023-03-11T18:19:13;8.68;;;3.05;;
35239;SDS011;21376;50.954;4.716;2023-03-11T18:24:14;11.43;;;3.53;;
35239;SDS011;21376;50.954;4.716;2023-03-11T18:26:42;9.10;;;3.40;;
35239;SDS011;21376;50.954;4.716;2023-03-11T18:29:09;11.10;;;3.35;;
35239;SDS011;21376;50.954;4.716;2023-03-11T18:31:39;12.65;;;3.95;;
35239;SDS011;21376;50.954;4.716;2023-03-11T18:34:11;10.55;;;4.15;;
35239;SDS011;21376;50.954;4.716;2023-03-11T18:36:50;16.53;;;6.30;;
35239;SDS011;21376;50.954;4.716;2023-03-11T18:39:17;12.63;;;5.60;;
35239;SDS011;21376;50.954;4.716;2023-03-11T18:41:45;18.08;;;5.95;;
35239;SDS011;21376;50.954;4.716;2023-03-11T18:44:11;16.33;;;5.95;;
35239;SDS011;21376;50.954;4.716;2023-03-11T18:46:46;10.82;;;4.70;;
35239;SDS011;21376;50.954;4.716;2023-03-11T18:49:12;9.82;;;4.88;;
35239;SDS011;21376;50.954;4.716;2023-03-11T18:51:40;12.73;;;5.10;;
35239;SDS011;21376;50.954;4.716;2023-03-11T18:56:38;10.82;;;5.00;;
35239;SDS011;21376;50.954;4.716;2023-03-11T18:59:03;17.00;;;5.68;;
35239;SDS011;21376;50.954;4.716;2023-03-11T19:01:32;12.43;;;4.68;;
35239;SDS011;21376;50.954;4.716;2023-03-11T19:03:59;13.15;;;6.25;;
35239;SDS011;21376;50.954;4.716;2023-03-11T19:06:28;23.13;;;10.23;;
35239;SDS011;21376;50.954;4.716;2023-03-11T19:08:55;16.38;;;7.97;;
35239;SDS011;21376;50.954;4.716;2023-03-11T19:11:22;14.35;;;7.05;;
35239;SDS011;21376;50.954;4.716;2023-03-11T19:13:51;14.52;;;6.38;;
35239;SDS011;21376;50.954;4.716;2023-03-11T19:16:19;16.00;;;6.68;;
35239;SDS011;21376;50.954;4.716;2023-03-11T19:21:19;16.85;;;7.03;;
35239;SDS011;21376;50.954;4.716;2023-03-11T19:23:45;17.75;;;6.70;;
35239;SDS011;21376;50.954;4.716;2023-03-11T19:33:55;15.97;;;6.37;;
35239;SDS011;21376;50.954;4.716;2023-03-11T19:38:46;17.25;;;7.13;;
35239;SDS011;21376;50.954;4.716;2023-03-11T19:43:46;10.68;;;5.38;;
35239;SDS011;21376;50.954;4.716;2023-03-11T19:46:16;13.07;;;5.57;;
35239;SDS011;21376;50.954;4.716;2023-03-11T19:48:46;12.32;;;5.60;;
35239;SDS011;21376;50.954;4.716;2023-03-11T19:51:12;10.75;;;5.60;;
35239;SDS011;21376;50.954;4.716;2023-03-11T19:53:38;16.30;;;7.75;;
35239;SDS011;21376;50.954;4.716;2023-03-11T19:56:05;16.90;;;7.35;;
35239;SDS011;21376;50.954;4.716;2023-03-11T19:58:36;19.88;;;6.78;;
35239;SDS011;21376;50.954;4.716;2023-03-11T20:01:13;17.23;;;8.68;;
35239;SDS011;21376;50.954;4.716;2023-03-11T20:03:48;19.65;;;8.80;;
35239;SDS011;21376;50.954;4.716;2023-03-11T20:08:49;20.50;;;8.98;;
35239;SDS011;21376;50.954;4.716;2023-03-11T20:11:18;21.23;;;10.07;;
35239;SDS011;21376;50.954;4.716;2023-03-11T20:13:44;20.45;;;10.68;;
35239;SDS011;21376;50.954;4.716;2023-03-11T20:19:09;30.23;;;12.38;;
35239;SDS011;21376;50.954;4.716;2023-03-11T20:21:47;35.03;;;14.60;;
35239;SDS011;21376;50.954;4.716;2023-03-11T20:24:15;25.38;;;13.38;;
35239;SDS011;21376;50.954;4.716;2023-03-11T20:26:41;26.13;;;11.80;;
35239;SDS011;21376;50.954;4.716;2023-03-11T20:29:16;27.55;;;11.75;;
35239;SDS011;21376;50.954;4.716;2023-03-11T20:34:18;26.40;;;10.30;;
35239;SDS011;21376;50.954;4.716;2023-03-11T20:44:11;26.02;;;10.25;;
35239;SDS011;21376;50.954;4.716;2023-03-11T20:49:08;19.42;;;9.30;;
35239;SDS011;21376;50.954;4.716;2023-03-11T20:54:15;19.45;;;9.70;;
35239;SDS011;21376;50.954;4.716;2023-03-11T20:56:44;24.13;;;10.30;;
35239;SDS011;21376;50.954;4.716;2023-03-11T20:59:14;22.63;;;10.70;;
35239;SDS011;21376;50.954;4.716;2023-03-11T21:04:09;19.23;;;9.93;;